createdAt,value
2018-07-25T16:14:38.461Z,31.77
2018-07-25T16:24:40.801Z,32.04
2018-07-25T16:34:43.296Z,31.68
2018-07-25T16:44:47.040Z,31.96
2018-07-25T16:54:49.401Z,31.87
2018-07-25T17:04:51.917Z,31.81
2018-07-25T17:14:54.258Z,31.83
2018-07-25T17:24:56.778Z,31.75
2018-07-25T17:34:59.294Z,31.85
2018-07-25T17:45:01.641Z,31.79
2018-07-25T17:55:04.117Z,31.69
2018-07-25T18:05:06.714Z,31.73
2018-07-25T18:15:09.472Z,31.64
2018-07-25T18:25:11.909Z,31.71
2018-07-25T18:35:14.255Z,31.70
2018-07-25T18:45:16.756Z,31.77
2018-07-25T18:55:19.104Z,31.69
2018-07-25T19:05:27.050Z,31.67
2018-07-25T19:15:32.004Z,31.65
2018-07-25T19:25:34.444Z,31.61
2018-07-25T19:35:36.829Z,31.62
2018-07-25T19:45:39.280Z,31.53
2018-07-25T19:55:42.320Z,31.45
2018-07-25T20:05:44.730Z,31.08
2018-07-25T20:15:52.684Z,31.30
2018-07-25T20:25:55.101Z,31.39
2018-07-25T20:35:57.509Z,31.17
2018-07-25T20:45:59.965Z,31.54
2018-07-25T20:56:02.494Z,31.55
2018-07-25T21:06:04.825Z,31.57
2018-07-25T21:16:07.483Z,31.66
2018-07-25T21:26:10.245Z,31.63
2018-07-25T21:36:12.605Z,31.64
2018-07-25T21:46:15.006Z,31.76
2018-07-25T21:56:17.488Z,31.69
2018-07-25T22:06:19.805Z,31.81
2018-07-25T22:16:22.682Z,31.81
2018-07-25T22:26:25.042Z,31.93
2018-07-25T22:36:27.912Z,31.76
2018-07-25T22:46:30.299Z,31.77
2018-07-25T22:56:32.907Z,31.90
2018-07-25T23:06:35.344Z,31.86
2018-07-25T23:16:37.947Z,31.90
2018-07-25T23:26:40.384Z,31.91
2018-07-25T23:36:42.745Z,31.91
2018-07-25T23:46:45.239Z,31.93
2018-07-25T23:56:47.805Z,31.94
